메인 페이지
METAR-TAF:

METAR-TAF

공항 :

바그다드, 이라크

바그다드 국제공항

위도: 33-15-45N, 경도: 44-14-04E, 고도: 35m

현재 날씨관측

예보는 15분 전, 09:30시(UTC)에 발표되었습니다.
남남동11kt
온도 18°C
습도 39%
기압 1016 hPa
시정 10km 이상
1500m 미만 상공 구름 및 적란운 없음

METAR: ORBI 180930Z 16011KT CAVOK 18/04 Q1016

시각: 12:45 (09:45 UTC)

예보

예보는 4 시간 45분 전, 05:00시(UTC)에 발표되었습니다.
예보 대상 시간: 18일 06시부터 19일 06시까지 (UTC)
동남동6kt
시정: 8000m
고도 3000ft 상공 구름 보통
고도 8000ft 상공 구름 보통

TAF: ORBI 180500Z 1806/1906 12006KT 8000 SCT030 SCT080

4,000개 이상의 공항 관측 자료 및 예보 (METAR 및 TAF 보고).

지도상에서 검색 가능한 기상관측소가 노란 점과 빨간 점으로 표시되어 있습니다.

기상관측소 명을 보려면 표시 위로 마우스를 이동하세요.

날씨 관측과 예보를 보려면 클릭하세요.

지도 변경 : 확대하려면 엑스 표시가 있는 녹색 버튼, 축소하려면 빼기 표시가 있는 녹색 버튼, 다음 페이지의 지도를 보려면 녹색 화살표를 클릭하세요.


METAR-TAF: